createdAt,value
2023-09-17T00:01:00.658Z,983.2
2023-09-17T00:05:03.963Z,983.3
2023-09-17T00:07:05.358Z,983.3
2023-09-17T00:11:08.916Z,983.4
2023-09-17T00:15:11.117Z,983.5
2023-09-17T00:17:12.100Z,983.4
2023-09-17T00:21:14.338Z,983.4
2023-09-17T00:25:17.351Z,983.5
2023-09-17T00:27:19.026Z,983.5
2023-09-17T00:31:22.393Z,983.4
2023-09-17T00:33:23.769Z,983.4
2023-09-17T00:35:25.220Z,983.4
2023-09-17T00:37:27.005Z,983.4
2023-09-17T00:41:30.037Z,983.3
2023-09-17T00:43:31.385Z,983.3
2023-09-17T00:47:34.069Z,983.3
2023-09-17T00:49:35.093Z,983.3
2023-09-17T00:53:37.694Z,983.3
2023-09-17T00:57:40.809Z,983.4
2023-09-17T00:59:42.189Z,983.4
2023-09-17T01:03:45.178Z,983.4
2023-09-17T01:05:46.123Z,983.3
2023-09-17T01:09:48.620Z,983.3
2023-09-17T01:13:51.356Z,983.3
2023-09-17T01:15:52.250Z,983.3
2023-09-17T01:19:55.302Z,983.2
2023-09-17T01:23:58.385Z,983.3
2023-09-17T01:25:59.533Z,983.3
2023-09-17T01:30:01.780Z,983.3
2023-09-17T01:32:02.673Z,983.3
2023-09-17T01:36:04.829Z,983.3
2023-09-17T01:40:07.666Z,983.3
2023-09-17T01:42:09.529Z,983.3
2023-09-17T01:46:12.801Z,983.3
2023-09-17T01:48:14.581Z,983.3
2023-09-17T01:52:17.685Z,983.4
2023-09-17T01:56:20.201Z,983.4
2023-09-17T01:58:21.145Z,983.3
2023-09-17T02:02:23.845Z,983.3
2023-09-17T02:06:26.882Z,983.4
2023-09-17T02:08:28.090Z,983.4
2023-09-17T02:12:30.767Z,983.4
2023-09-17T02:14:32.602Z,983.3
2023-09-17T02:18:35.286Z,983.4
2023-09-17T02:22:38.381Z,983.5
2023-09-17T02:24:40.034Z,983.4
2023-09-17T02:28:42.257Z,983.5
2023-09-17T02:30:44.107Z,983.4
2023-09-17T02:34:46.870Z,983.4
2023-09-17T02:38:50.089Z,983.4
2023-09-17T02:40:51.820Z,983.4
2023-09-17T02:44:54.987Z,983.5
2023-09-17T02:48:58.117Z,983.3
2023-09-17T02:50:59.695Z,983.3
2023-09-17T02:55:01.818Z,983.3
2023-09-17T02:57:03.061Z,983.3
2023-09-17T02:59:04.027Z,983.3
2023-09-17T03:01:05.868Z,983.4
2023-09-17T03:05:08.497Z,983.4
2023-09-17T03:07:10.303Z,983.3
2023-09-17T03:11:13.331Z,983.3
2023-09-17T03:13:58.520Z,983.4
2023-09-17T03:15:59.606Z,983.4
2023-09-17T03:18:01.254Z,983.3
2023-09-17T03:22:03.908Z,983.3
2023-09-17T03:24:05.531Z,983.2
2023-09-17T03:28:07.563Z,983.3
2023-09-17T03:32:10.530Z,983.3
2023-09-17T03:34:12.415Z,983.3
2023-09-17T03:38:14.425Z,983.4
2023-09-17T03:42:16.965Z,983.4
2023-09-17T03:44:17.945Z,983.3
2023-09-17T03:48:20.568Z,983.4
2023-09-17T03:50:21.842Z,983.4
2023-09-17T03:54:23.869Z,983.4
2023-09-17T03:58:27.097Z,983.4
2023-09-17T04:00:28.900Z,983.4
2023-09-17T04:04:31.132Z,983.4
2023-09-17T04:06:32.162Z,983.5
2023-09-17T04:10:34.661Z,983.4
2023-09-17T04:14:37.568Z,983.4
2023-09-17T04:16:39.218Z,983.4
2023-09-17T04:20:41.452Z,983.4
2023-09-17T04:22:42.448Z,983.4
2023-09-17T04:26:45.224Z,983.5
2023-09-17T04:30:47.682Z,983.5
2023-09-17T04:32:49.018Z,983.5
2023-09-17T04:36:50.955Z,983.5
2023-09-17T04:38:52.633Z,983.5
2023-09-17T04:42:55.585Z,983.6
2023-09-17T04:46:58.382Z,983.5
2023-09-17T04:48:59.655Z,983.5
2023-09-17T04:53:02.533Z,983.5
2023-09-17T04:57:05.161Z,983.5
2023-09-17T04:59:06.215Z,983.5
2023-09-17T05:03:08.518Z,983.6
2023-09-17T05:05:10.013Z,983.5
2023-09-17T05:09:13.482Z,983.6
2023-09-17T05:13:16.198Z,983.6
2023-09-17T05:15:17.200Z,983.6
2023-09-17T05:19:20.387Z,983.6
2023-09-17T05:21:21.426Z,983.7
2023-09-17T05:25:23.689Z,983.7
2023-09-17T05:29:26.708Z,983.7
2023-09-17T05:31:27.617Z,983.6
2023-09-17T05:35:30.174Z,983.7
2023-09-17T05:37:31.298Z,983.6
2023-09-17T05:41:33.554Z,983.7
2023-09-17T05:45:36.195Z,983.8
2023-09-17T05:47:37.139Z,983.9
2023-09-17T05:51:39.378Z,984
2023-09-17T05:55:42.817Z,983.9
2023-09-17T05:57:43.907Z,983.9
2023-09-17T06:01:46.938Z,984.1
2023-09-17T06:03:48.299Z,983.9
2023-09-17T06:07:50.837Z,983.9
2023-09-17T06:11:53.534Z,983.9
2023-09-17T06:13:55.526Z,984.1
2023-09-17T06:17:58.193Z,984.2
2023-09-17T06:19:59.110Z,984.2
2023-09-17T06:24:01.246Z,984.1
2023-09-17T06:28:03.556Z,984.2
2023-09-17T06:30:04.494Z,984.2
2023-09-17T06:34:07.030Z,984.2
2023-09-17T06:38:09.578Z,984.2
2023-09-17T06:40:10.820Z,984.1
2023-09-17T06:44:13.929Z,984
2023-09-17T06:46:15.503Z,984
2023-09-17T06:50:17.536Z,984
2023-09-17T06:54:20.938Z,984
2023-09-17T06:56:22.607Z,984.2
2023-09-17T07:00:25.107Z,984.1
2023-09-17T07:02:25.907Z,984.1
2023-09-17T07:06:28.598Z,984
2023-09-17T07:10:30.653Z,984.1
2023-09-17T07:12:32.093Z,984.1
2023-09-17T07:16:34.694Z,984.1
2023-09-17T07:18:35.793Z,984
2023-09-17T07:22:38.430Z,984
2023-09-17T07:26:41.259Z,984.1
2023-09-17T07:28:42.197Z,984.1
2023-09-17T07:32:44.424Z,984.1
2023-09-17T07:36:46.424Z,984.1
2023-09-17T07:38:47.374Z,984.1
2023-09-17T07:42:51.228Z,984.2
2023-09-17T07:44:52.414Z,984.1
2023-09-17T07:48:55.199Z,984.1
2023-09-17T07:52:58.412Z,984.1
2023-09-17T07:54:59.479Z,984.1
2023-09-17T07:59:02.048Z,984.2
2023-09-17T08:01:02.999Z,984.2
2023-09-17T08:05:05.479Z,984.1
2023-09-17T08:09:07.825Z,984.2
2023-09-17T08:11:08.815Z,984.2
2023-09-17T08:15:10.955Z,984.2
2023-09-17T08:19:13.294Z,984.2
2023-09-17T08:21:14.497Z,984.2
2023-09-17T08:25:16.768Z,984.2
2023-09-17T08:27:17.623Z,984.2
2023-09-17T08:29:18.602Z,984.2
2023-09-17T08:31:20.350Z,984.3
2023-09-17T08:35:22.286Z,984.2
2023-09-17T08:37:23.889Z,984.3
2023-09-17T08:39:24.861Z,984.2
2023-09-17T08:41:26.257Z,984.3
2023-09-17T08:43:27.605Z,984.2
2023-09-17T08:47:29.743Z,984.3
2023-09-17T08:51:32.212Z,984.3
2023-09-17T08:53:33.243Z,984.2
2023-09-17T08:57:36.117Z,984.3
2023-09-17T08:59:37.680Z,984.3
2023-09-17T09:03:40.590Z,984.4
2023-09-17T09:07:42.527Z,984.5
2023-09-17T09:09:44.150Z,984.4
2023-09-17T09:13:46.944Z,984.4
2023-09-17T09:17:48.933Z,984.4
2023-09-17T09:19:50.331Z,984.5
2023-09-17T09:23:53.040Z,984.4
2023-09-17T09:25:54.462Z,984.4
2023-09-17T09:29:56.129Z,984.4
2023-09-17T09:33:59.142Z,984.4
2023-09-17T09:36:00.285Z,984.3
2023-09-17T09:40:03.765Z,984.3
2023-09-17T09:42:05.507Z,984.3
2023-09-17T09:46:07.759Z,984.3
2023-09-17T09:50:10.515Z,984.2
2023-09-17T09:52:11.502Z,984.3
2023-09-17T09:56:13.660Z,984.2
2023-09-17T10:01:00.155Z,984.2
2023-09-17T10:03:00.962Z,984.3
2023-09-17T10:05:01.830Z,984.3
2023-09-17T10:07:03.463Z,984.3
2023-09-17T10:11:06.455Z,984.3
2023-09-17T10:13:07.463Z,984.2
2023-09-17T10:15:09.005Z,984.2
2023-09-17T10:17:10.552Z,984.1
2023-09-17T10:19:11.329Z,984.1
2023-09-17T10:23:13.521Z,984.2
2023-09-17T10:27:15.511Z,984.1
2023-09-17T10:29:16.565Z,984
2023-09-17T10:33:19.120Z,984
2023-09-17T10:35:20.766Z,984.1
2023-09-17T10:39:23.191Z,984
2023-09-17T10:43:26.128Z,984
2023-09-17T10:45:27.589Z,984
2023-09-17T10:49:30.525Z,983.9
2023-09-17T10:53:33.505Z,983.8
2023-09-17T10:55:34.273Z,983.8
2023-09-17T10:59:36.677Z,983.9
2023-09-17T11:01:38.388Z,983.9
2023-09-17T11:05:40.853Z,983.8
2023-09-17T11:09:43.590Z,983.8
2023-09-17T11:11:44.855Z,983.8
2023-09-17T11:15:47.266Z,983.8
2023-09-17T11:17:48.602Z,983.8
2023-09-17T11:21:51.152Z,983.8
2023-09-17T11:25:53.896Z,983.7
2023-09-17T11:27:55.410Z,983.7
2023-09-17T11:31:57.652Z,983.6
2023-09-17T11:35:59.941Z,983.7
2023-09-17T11:38:00.748Z,983.7
2023-09-17T11:42:03.202Z,983.6
2023-09-17T11:44:04.862Z,983.6
2023-09-17T11:46:05.877Z,983.7
2023-09-17T11:48:06.976Z,983.7
2023-09-17T11:52:09.668Z,983.6
2023-09-17T11:54:10.543Z,983.7
2023-09-17T11:58:12.940Z,983.6
2023-09-17T12:00:14.634Z,983.6
2023-09-17T12:04:16.530Z,983.4
2023-09-17T12:08:19.569Z,983.5
2023-09-17T12:10:20.248Z,983.4
2023-09-17T12:14:22.980Z,983.3
2023-09-17T12:16:24.684Z,983.3
2023-09-17T12:20:27.413Z,983.3
2023-09-17T12:24:30.642Z,983.3
2023-09-17T12:26:40.532Z,983.3
2023-09-17T12:30:33.751Z,983.3
2023-09-17T12:34:36.750Z,983.2
2023-09-17T12:36:37.485Z,983.3
2023-09-17T12:40:40.633Z,983.2
2023-09-17T12:42:41.428Z,983.3
2023-09-17T12:46:43.833Z,983.3
2023-09-17T12:50:45.931Z,983.4
2023-09-17T12:52:47.527Z,983.2
2023-09-17T12:56:49.673Z,983.2
2023-09-17T12:58:50.789Z,983.3
2023-09-17T13:02:52.846Z,983.2
2023-09-17T13:06:55.309Z,983.2
2023-09-17T13:08:56.369Z,983.3
2023-09-17T13:12:59.012Z,983.3
2023-09-17T13:19:03.386Z,983.2
2023-09-17T13:23:05.536Z,983.1
2023-09-17T13:25:07.253Z,983.1
2023-09-17T13:29:09.437Z,983.1
2023-09-17T13:33:12.259Z,983.1
2023-09-17T13:35:13.828Z,983.2
2023-09-17T13:39:16.404Z,983.1
2023-09-17T13:41:17.388Z,983
2023-09-17T13:45:19.571Z,983.1
2023-09-17T13:49:22.285Z,983.1
2023-09-17T13:51:23.094Z,983.1
2023-09-17T13:55:24.738Z,982.9
2023-09-17T13:57:26.468Z,983
2023-09-17T14:01:29.247Z,982.9
2023-09-17T14:05:31.801Z,983
2023-09-17T14:07:32.878Z,982.9
2023-09-17T14:11:35.738Z,982.9
2023-09-17T14:15:38.467Z,982.8
2023-09-17T14:17:39.282Z,982.8
2023-09-17T14:21:41.658Z,982.8
2023-09-17T14:23:42.795Z,982.9
2023-09-17T14:27:46.535Z,982.8
2023-09-17T14:31:49.476Z,982.7
2023-09-17T14:33:51.296Z,982.7
2023-09-17T14:37:53.274Z,982.6
2023-09-17T14:39:54.737Z,982.6
2023-09-17T14:43:57.293Z,982.6
2023-09-17T14:47:59.454Z,982.5
2023-09-17T14:50:00.861Z,982.4
2023-09-17T14:54:03.478Z,982.4
2023-09-17T15:00:06.202Z,982.3
2023-09-17T15:04:08.167Z,982.3
2023-09-17T15:06:08.895Z,982.3
2023-09-17T15:10:12.010Z,982.2
2023-09-17T15:14:15.616Z,982.1
2023-09-17T15:16:16.718Z,982.1
2023-09-17T15:20:21.209Z,982.1
2023-09-17T15:22:19.818Z,982.1
2023-09-17T15:26:21.864Z,982.2
2023-09-17T15:30:24.705Z,982
2023-09-17T15:32:25.775Z,982
2023-09-17T15:36:28.568Z,981.9
2023-09-17T15:38:29.607Z,982
2023-09-17T15:42:31.885Z,982
2023-09-17T15:46:34.626Z,981.9
2023-09-17T15:48:35.972Z,982
2023-09-17T15:52:38.298Z,981.9
2023-09-17T15:56:41.143Z,981.9
2023-09-17T15:58:42.357Z,981.8
2023-09-17T16:02:44.658Z,981.9
2023-09-17T16:04:45.729Z,981.9
2023-09-17T16:06:47.181Z,981.8
2023-09-17T16:08:48.375Z,981.8
2023-09-17T16:12:50.920Z,981.8
2023-09-17T16:14:52.020Z,981.9
2023-09-17T16:18:54.099Z,981.9
2023-09-17T16:20:55.575Z,981.8
2023-09-17T16:24:57.872Z,981.8
2023-09-17T16:29:00.976Z,981.8
2023-09-17T16:31:01.930Z,981.8
2023-09-17T16:35:04.040Z,981.7
2023-09-17T16:37:07.025Z,981.8
2023-09-17T16:41:07.489Z,981.8
2023-09-17T16:45:53.598Z,981.9
2023-09-17T16:49:56.076Z,981.9
2023-09-17T16:51:57.053Z,981.9
2023-09-17T16:56:00.126Z,981.9
2023-09-17T16:58:01.778Z,981.9
2023-09-17T17:02:04.022Z,981.9
2023-09-17T17:06:06.034Z,981.9
2023-09-17T17:08:09.066Z,981.9
2023-09-17T17:12:09.858Z,981.9
2023-09-17T17:14:11.079Z,981.8
2023-09-17T17:18:13.286Z,981.7
2023-09-17T17:22:15.540Z,981.8
2023-09-17T17:24:16.685Z,981.8
2023-09-17T17:28:19.125Z,981.7
2023-09-17T17:34:25.293Z,981.7
2023-09-17T17:38:26.474Z,981.7
2023-09-17T17:40:27.361Z,981.7
2023-09-17T17:42:28.930Z,981.7
2023-09-17T17:44:30.186Z,981.7
2023-09-17T17:48:33.378Z,981.7
2023-09-17T17:50:34.370Z,981.7
2023-09-17T17:54:36.371Z,981.7
2023-09-17T17:56:37.187Z,981.7
2023-09-17T18:00:39.712Z,981.7
2023-09-17T18:04:41.922Z,981.8
2023-09-17T18:06:43.466Z,981.8
2023-09-17T18:10:46.037Z,981.9
2023-09-17T18:12:47.763Z,981.9
2023-09-17T18:16:50.945Z,981.8
2023-09-17T18:20:54.015Z,981.8
2023-09-17T18:22:54.875Z,981.7
2023-09-17T18:26:57.321Z,981.7
2023-09-17T18:30:59.718Z,981.8
2023-09-17T18:33:01.058Z,981.7
2023-09-17T18:37:04.139Z,981.7
2023-09-17T18:39:05.378Z,981.7
2023-09-17T18:43:08.005Z,981.6
2023-09-17T18:47:10.225Z,981.6
2023-09-17T18:49:11.722Z,981.6
2023-09-17T18:53:13.692Z,981.6
2023-09-17T18:55:15.533Z,981.7
2023-09-17T18:59:19.006Z,981.7
2023-09-17T19:03:21.408Z,981.7
2023-09-17T19:05:22.396Z,981.6
2023-09-17T19:09:24.872Z,981.5
2023-09-17T19:13:28.252Z,981.5
2023-09-17T19:15:29.315Z,981.5
2023-09-17T19:19:31.439Z,981.4
2023-09-17T19:21:32.312Z,981.4
2023-09-17T19:23:33.497Z,981.4
2023-09-17T19:25:35.185Z,981.3
2023-09-17T19:29:37.071Z,981.3
2023-09-17T19:31:38.136Z,981.3
2023-09-17T19:35:40.379Z,981.2
2023-09-17T19:37:41.983Z,981.3
2023-09-17T19:41:44.139Z,981.2
2023-09-17T19:45:45.986Z,981.3
2023-09-17T19:47:47.659Z,981.3
2023-09-17T19:51:50.905Z,981.2
2023-09-17T19:53:52.553Z,981.2
2023-09-17T19:57:54.873Z,981.2
2023-09-17T20:01:57.899Z,981.1
2023-09-17T20:03:59.154Z,981.2
2023-09-17T20:08:01.021Z,981.4
2023-09-17T20:12:03.672Z,981.2
2023-09-17T20:14:04.587Z,981.3
2023-09-17T20:18:06.867Z,981.2
2023-09-17T20:20:08.633Z,981.2
2023-09-17T20:24:10.852Z,981.2
2023-09-17T20:28:13.529Z,981.2
2023-09-17T20:30:14.786Z,981.2
2023-09-17T20:34:16.820Z,981.2
2023-09-17T20:36:17.876Z,981.2
2023-09-17T20:40:20.410Z,981.2
2023-09-17T20:44:23.658Z,981.2
2023-09-17T20:46:25.257Z,981.2
2023-09-17T20:50:28.504Z,981.1
2023-09-17T20:54:31.373Z,981.1
2023-09-17T20:56:33.122Z,981.1
2023-09-17T21:00:43.514Z,981.1
2023-09-17T21:02:36.435Z,981.1
2023-09-17T21:06:39.109Z,981
2023-09-17T21:10:41.817Z,981
2023-09-17T21:12:43.477Z,981
2023-09-17T21:16:45.382Z,981
2023-09-17T21:18:47.232Z,981.1
2023-09-17T21:22:51.494Z,981
2023-09-17T21:26:52.083Z,981
2023-09-17T21:28:53.189Z,980.9
2023-09-17T21:33:03.406Z,980.9
2023-09-17T21:34:56.236Z,980.9
2023-09-17T21:38:59.197Z,980.8
2023-09-17T21:43:02.781Z,980.8
2023-09-17T21:45:03.695Z,980.8
2023-09-17T21:49:09.633Z,980.7
2023-09-17T21:53:10.025Z,980.6
2023-09-17T21:55:10.427Z,980.7
2023-09-17T21:59:12.743Z,980.7
2023-09-17T22:01:13.879Z,980.6
2023-09-17T22:05:16.759Z,980.4
2023-09-17T22:07:18.620Z,980.3
2023-09-17T22:11:20.881Z,980.4
2023-09-17T22:15:23.182Z,980.4
2023-09-17T22:17:25.226Z,980.3
2023-09-17T22:21:38.636Z,980.2
2023-09-17T22:25:30.580Z,980.1
2023-09-17T22:27:32.344Z,980.1
2023-09-17T22:31:34.670Z,980
2023-09-17T22:33:36.378Z,980
2023-09-17T22:37:39.080Z,980.1
2023-09-17T22:41:41.468Z,980.1
2023-09-17T22:43:42.845Z,980
2023-09-17T22:47:45.908Z,980
2023-09-17T22:49:47.567Z,980
2023-09-17T22:53:50.083Z,979.9
2023-09-17T22:57:52.373Z,980
2023-09-17T22:59:54.028Z,980
2023-09-17T23:03:56.531Z,979.9
2023-09-17T23:07:58.481Z,979.8
2023-09-17T23:10:00.006Z,979.7
2023-09-17T23:14:03.792Z,979.7
2023-09-17T23:16:05.339Z,979.7
2023-09-17T23:18:06.234Z,979.7
2023-09-17T23:20:07.484Z,979.6
2023-09-17T23:24:09.788Z,979.6
2023-09-17T23:26:10.814Z,979.7
2023-09-17T23:31:04.808Z,979.7
2023-09-17T23:35:00.294Z,979.7
2023-09-17T23:37:01.564Z,979.7
2023-09-17T23:41:03.574Z,979.5
2023-09-17T23:43:05.751Z,979.4
2023-09-17T23:47:08.004Z,979.4
2023-09-17T23:51:11.060Z,979.3
2023-09-17T23:53:13.074Z,979.3
2023-09-17T23:57:14.128Z,979.4
